createdAt,value
2022-12-08T00:01:31.077Z,101168.78
2022-12-08T00:04:02.252Z,101166.69
2022-12-08T00:06:53.049Z,101163.44
2022-12-08T00:09:27.284Z,101154.75
2022-12-08T00:12:01.268Z,101141.56
2022-12-08T00:14:34.768Z,101142.91
2022-12-08T00:17:07.027Z,101132.38
2022-12-08T00:19:37.601Z,101137.59
2022-12-08T00:22:08.272Z,101128.78
2022-12-08T00:24:44.892Z,101124.59
2022-12-08T00:27:34.427Z,101124.47
2022-12-08T00:30:05.552Z,101115.56
2022-12-08T00:32:34.132Z,101112.75
2022-12-08T00:35:11.864Z,101108.41
2022-12-08T00:37:43.517Z,101113.34
2022-12-08T00:40:12.888Z,101102.81
2022-12-08T00:42:42.214Z,101099.56
2022-12-08T00:45:15.614Z,101091.47
2022-12-08T00:47:44.986Z,101079.72
2022-12-08T00:50:14.385Z,101093.44
2022-12-08T00:52:44.717Z,101086.50
2022-12-08T00:55:16.368Z,101089.38
2022-12-08T00:57:46.605Z,101088.81
2022-12-08T01:00:17.833Z,101098.56
2022-12-08T01:02:46.552Z,101096.97
2022-12-08T01:05:14.942Z,101110.78
2022-12-08T01:07:43.936Z,101109.34
2022-12-08T01:10:12.497Z,101102.47
2022-12-08T01:12:41.578Z,101090.13
2022-12-08T01:15:12.268Z,101087.00
2022-12-08T01:17:42.243Z,101087.84
2022-12-08T01:20:12.245Z,101076.53
2022-12-08T01:22:41.639Z,101091.16
2022-12-08T01:25:13.177Z,101102.50
2022-12-08T01:27:41.825Z,101116.53
2022-12-08T01:30:13.271Z,101107.47
2022-12-08T01:32:44.523Z,101101.28
2022-12-08T01:35:13.830Z,101075.94
2022-12-08T01:37:42.683Z,101064.84
2022-12-08T01:40:13.995Z,101056.69
2022-12-08T01:42:43.186Z,101065.97
2022-12-08T01:45:23.823Z,101074.78
2022-12-08T01:47:58.762Z,101076.41
2022-12-08T01:50:29.673Z,101065.91
2022-12-08T01:53:03.742Z,101058.59
2022-12-08T01:55:39.116Z,101060.94
2022-12-08T01:58:13.902Z,101059.69
2022-12-08T02:00:44.966Z,101056.53
2022-12-08T02:03:21.243Z,101055.56
2022-12-08T02:05:50.647Z,101055.78
2022-12-08T02:08:20.818Z,101065.56
2022-12-08T02:10:52.588Z,101059.25
2022-12-08T02:13:24.357Z,101062.47
2022-12-08T02:16:04.499Z,101071.59
2022-12-08T02:19:22.125Z,101063.91
2022-12-08T02:21:53.385Z,101054.97
2022-12-08T02:24:33.429Z,101041.31
2022-12-08T02:27:39.342Z,101042.56
2022-12-08T02:30:25.124Z,101025.59
2022-12-08T02:33:45.599Z,101034.91
2022-12-08T02:36:21.681Z,101028.75
2022-12-08T02:39:03.672Z,101027.84
2022-12-08T02:41:44.136Z,101035.25
2022-12-08T02:44:21.879Z,101015.88
2022-12-08T02:46:54.958Z,101020.50
2022-12-08T02:49:32.832Z,101011.38
2022-12-08T02:52:30.851Z,101017.28
2022-12-08T02:55:04.562Z,101004.38
2022-12-08T02:57:44.593Z,100998.25
2022-12-08T03:00:18.216Z,101000.97
2022-12-08T03:03:06.984Z,101003.56
2022-12-08T03:06:07.088Z,101008.41
2022-12-08T03:08:43.764Z,101000.19
2022-12-08T03:11:20.728Z,101001.50
2022-12-08T03:13:54.565Z,100998.38
2022-12-08T03:16:28.797Z,100988.22
2022-12-08T03:19:03.486Z,100983.03
2022-12-08T03:21:37.164Z,100985.47
2022-12-08T03:24:11.281Z,100972.97
2022-12-08T03:26:48.972Z,100982.28
2022-12-08T03:29:21.266Z,100978.13
2022-12-08T03:31:56.684Z,100990.88
2022-12-08T03:34:30.309Z,100986.56
2022-12-08T03:37:03.803Z,100978.72
2022-12-08T03:39:32.287Z,100970.50
2022-12-08T03:42:01.172Z,100958.84
2022-12-08T03:44:32.096Z,100962.13
2022-12-08T03:47:01.854Z,100951.34
2022-12-08T03:49:30.494Z,100950.50
2022-12-08T03:52:01.027Z,100947.28
2022-12-08T03:54:29.795Z,100943.72
2022-12-08T03:56:58.688Z,100941.63
2022-12-08T03:59:27.643Z,100943.78
2022-12-08T04:01:56.829Z,100953.22
2022-12-08T04:04:26.078Z,100952.88
2022-12-08T04:06:56.061Z,100955.66
2022-12-08T04:09:26.819Z,100951.16
2022-12-08T04:11:56.561Z,100971.22
2022-12-08T04:14:27.784Z,100968.75
2022-12-08T04:16:57.726Z,100970.88
2022-12-08T04:19:28.090Z,100964.88
2022-12-08T04:21:56.695Z,100971.28
2022-12-08T04:24:27.232Z,100965.19
2022-12-08T04:26:55.920Z,100963.34
2022-12-08T04:29:24.458Z,100965.94
2022-12-08T04:31:52.821Z,100963.63
2022-12-08T04:34:23.142Z,100958.03
2022-12-08T04:36:54.153Z,100955.22
2022-12-08T04:39:23.130Z,100961.38
2022-12-08T04:41:53.047Z,100954.41
2022-12-08T04:44:22.055Z,100948.88
2022-12-08T04:46:51.586Z,100937.06
2022-12-08T04:49:22.023Z,100934.19
2022-12-08T04:51:51.418Z,100930.34
2022-12-08T04:54:19.983Z,100938.69
2022-12-08T04:56:51.707Z,100936.56
2022-12-08T04:59:21.854Z,100931.84
2022-12-08T05:01:50.544Z,100927.72
2022-12-08T05:04:19.015Z,100933.34
2022-12-08T05:06:47.846Z,100934.94
2022-12-08T05:09:17.170Z,100929.84
2022-12-08T05:11:49.206Z,100931.41
2022-12-08T05:14:21.104Z,100922.59
2022-12-08T05:16:51.194Z,100919.28
2022-12-08T05:19:20.412Z,100921.09
2022-12-08T05:21:49.542Z,100924.78
2022-12-08T05:24:18.963Z,100923.09
2022-12-08T05:26:49.999Z,100935.28
2022-12-08T05:29:20.882Z,100926.75
2022-12-08T05:31:49.761Z,100924.84
2022-12-08T05:34:18.799Z,100919.53
2022-12-08T05:36:48.195Z,100919.88
2022-12-08T05:39:18.196Z,100916.22
2022-12-08T05:41:47.787Z,100911.78
2022-12-08T05:44:21.491Z,100911.13
2022-12-08T05:46:53.059Z,100909.19
2022-12-08T05:49:21.668Z,100905.28
2022-12-08T05:51:50.166Z,100904.78
2022-12-08T05:54:19.449Z,100898.50
2022-12-08T05:56:49.328Z,100898.84
2022-12-08T05:59:18.539Z,100908.53
2022-12-08T06:01:47.326Z,100899.63
2022-12-08T06:04:22.851Z,100907.34
2022-12-08T06:06:52.281Z,100899.59
2022-12-08T06:09:21.277Z,100904.41
2022-12-08T06:11:49.637Z,100904.56
2022-12-08T06:14:19.916Z,100900.38
2022-12-08T06:16:49.157Z,100905.81
2022-12-08T06:19:22.582Z,100908.97
2022-12-08T06:21:51.798Z,100908.97
2022-12-08T06:24:20.432Z,100899.88
2022-12-08T06:26:50.667Z,100898.84
2022-12-08T06:29:20.869Z,100895.75
2022-12-08T06:31:51.895Z,100905.19
2022-12-08T06:34:24.068Z,100906.72
2022-12-08T06:36:54.721Z,100904.63
2022-12-08T06:39:24.203Z,100903.09
2022-12-08T06:42:12.392Z,100907.22
2022-12-08T06:44:41.749Z,100901.41
2022-12-08T06:47:12.892Z,100903.53
2022-12-08T06:49:44.238Z,100906.94
2022-12-08T06:52:12.809Z,100906.00
2022-12-08T06:54:42.007Z,100900.13
2022-12-08T06:57:12.571Z,100886.59
2022-12-08T06:59:41.423Z,100906.31
2022-12-08T07:02:11.111Z,100905.13
2022-12-08T07:04:39.745Z,100911.41
2022-12-08T07:07:22.759Z,100915.31
2022-12-08T07:09:52.343Z,100916.72
2022-12-08T07:12:22.480Z,100918.22
2022-12-08T07:14:52.890Z,100918.09
2022-12-08T07:17:22.321Z,100926.50
2022-12-08T07:19:51.695Z,100927.91
2022-12-08T07:22:22.341Z,100930.25
2022-12-08T07:24:50.811Z,100931.59
2022-12-08T07:27:19.521Z,100932.56
2022-12-08T07:29:48.197Z,100930.97
2022-12-08T07:32:18.297Z,100922.81
2022-12-08T07:34:47.500Z,100932.66
2022-12-08T07:37:20.312Z,100925.09
2022-12-08T07:39:48.691Z,100924.59
2022-12-08T07:42:17.983Z,100921.19
2022-12-08T07:44:46.524Z,100929.19
2022-12-08T07:47:15.627Z,100929.25
2022-12-08T07:49:44.304Z,100919.88
2022-12-08T07:52:13.307Z,100926.06
2022-12-08T07:54:44.382Z,100925.97
2022-12-08T07:57:14.296Z,100923.88
2022-12-08T07:59:42.646Z,100928.25
2022-12-08T08:02:26.917Z,100925.81
2022-12-08T08:04:56.294Z,100921.88
2022-12-08T08:07:26.153Z,100915.75
2022-12-08T08:09:56.963Z,100917.69
2022-12-08T08:12:33.014Z,100915.50
2022-12-08T08:15:03.616Z,100907.28
2022-12-08T08:17:34.063Z,100912.88
2022-12-08T08:20:07.327Z,100914.69
2022-12-08T08:22:38.081Z,100908.41
2022-12-08T08:25:10.167Z,100903.22
2022-12-08T08:27:40.974Z,100905.13
2022-12-08T08:30:18.345Z,100913.88
2022-12-08T08:32:50.873Z,100923.94
2022-12-08T08:35:20.939Z,100925.75
2022-12-08T08:37:51.904Z,100933.88
2022-12-08T08:40:23.378Z,100933.47
2022-12-08T08:42:52.235Z,100924.28
2022-12-08T08:45:20.840Z,100927.06
2022-12-08T08:47:50.167Z,100933.56
2022-12-08T08:50:21.779Z,100932.38
2022-12-08T08:52:52.469Z,100937.97
2022-12-08T08:55:23.065Z,100938.47
2022-12-08T08:57:51.514Z,100923.16
2022-12-08T09:00:22.752Z,100921.75
2022-12-08T09:02:54.856Z,100928.88
2022-12-08T09:05:23.756Z,100932.41
2022-12-08T09:07:52.161Z,100932.81
2022-12-08T09:10:23.222Z,100933.03
2022-12-08T09:12:52.107Z,100932.88
2022-12-08T09:15:21.029Z,100936.72
2022-12-08T09:17:51.963Z,100936.56
2022-12-08T09:20:21.665Z,100951.16
2022-12-08T09:22:53.107Z,100946.28
2022-12-08T09:25:23.545Z,100949.09
2022-12-08T09:27:54.360Z,100947.59
2022-12-08T09:30:23.409Z,100949.16
2022-12-08T09:32:52.082Z,100944.34
2022-12-08T09:35:21.823Z,100940.09
2022-12-08T09:37:50.642Z,100940.03
2022-12-08T09:40:25.675Z,100944.63
2022-12-08T09:43:03.436Z,100940.63
2022-12-08T09:45:37.432Z,100929.59
2022-12-08T09:48:15.267Z,100930.00
2022-12-08T09:50:52.763Z,100926.84
2022-12-08T09:53:32.017Z,100922.63
2022-12-08T09:56:10.460Z,100926.66
2022-12-08T09:58:46.120Z,100928.22
2022-12-08T10:01:17.306Z,100932.63
2022-12-08T10:03:46.494Z,100931.66
2022-12-08T10:06:25.290Z,100929.34
2022-12-08T10:09:04.150Z,100924.94
2022-12-08T10:11:45.079Z,100923.50
2022-12-08T10:14:23.395Z,100915.78
2022-12-08T10:16:58.457Z,100916.22
2022-12-08T10:19:32.003Z,100916.88
2022-12-08T10:22:01.292Z,100909.84
2022-12-08T10:24:38.957Z,100903.41
2022-12-08T10:27:29.884Z,100910.09
2022-12-08T10:29:59.264Z,100899.22
2022-12-08T10:32:35.460Z,100899.97
2022-12-08T10:35:08.643Z,100903.38
2022-12-08T10:37:38.340Z,100907.13
2022-12-08T10:40:14.784Z,100905.38
2022-12-08T10:42:52.083Z,100900.13
2022-12-08T10:45:34.497Z,100898.84
2022-12-08T10:48:06.896Z,100885.75
2022-12-08T10:50:43.406Z,100889.25
2022-12-08T10:53:21.853Z,100886.34
2022-12-08T10:55:56.594Z,100883.41
2022-12-08T10:58:35.416Z,100883.88
2022-12-08T11:01:18.844Z,100880.66
2022-12-08T11:03:52.430Z,100884.03
2022-12-08T11:06:34.280Z,100876.31
2022-12-08T11:09:08.856Z,100877.34
2022-12-08T11:11:49.613Z,100866.28
2022-12-08T11:14:26.289Z,100865.63
2022-12-08T11:16:59.317Z,100864.19
2022-12-08T11:19:29.774Z,100853.31
2022-12-08T11:22:02.697Z,100862.63
2022-12-08T11:24:39.953Z,100856.28
2022-12-08T11:27:10.947Z,100847.78
2022-12-08T11:29:43.228Z,100854.16
2022-12-08T11:32:16.106Z,100852.47
2022-12-08T11:35:12.750Z,100856.75
2022-12-08T11:37:45.342Z,100856.13
2022-12-08T11:40:23.985Z,100852.13
2022-12-08T11:43:10.856Z,100853.16
2022-12-08T11:45:42.864Z,100858.31
2022-12-08T11:48:19.689Z,100855.13
2022-12-08T11:50:54.002Z,100863.69
2022-12-08T11:56:22.154Z,100869.50
2022-12-08T11:58:57.020Z,100862.41
2022-12-08T12:01:31.676Z,100854.16
2022-12-08T12:04:20.028Z,100866.97
2022-12-08T12:07:57.658Z,100865.84
2022-12-08T12:10:46.136Z,100864.59
2022-12-08T12:14:01.873Z,100869.44
2022-12-08T12:17:05.013Z,100869.00
2022-12-08T12:19:40.460Z,100869.88
2022-12-08T12:22:18.674Z,100864.56
2022-12-08T12:24:55.072Z,100860.25
2022-12-08T12:27:31.298Z,100865.34
2022-12-08T12:30:07.072Z,100858.88
2022-12-08T12:32:51.344Z,100849.44
2022-12-08T12:38:42.193Z,100841.28
2022-12-08T12:41:22.340Z,100827.13
2022-12-08T12:44:46.059Z,100827.13
2022-12-08T12:47:39.876Z,100825.47
2022-12-08T12:50:14.277Z,100827.06
2022-12-08T12:52:50.651Z,100816.81
2022-12-08T12:55:54.691Z,100826.72
2022-12-08T12:58:41.052Z,100818.97
2022-12-08T13:01:56.633Z,100822.25
2022-12-08T13:04:38.857Z,100817.38
2022-12-08T13:07:10.795Z,100813.47
2022-12-08T13:09:47.393Z,100808.13
2022-12-08T13:12:39.983Z,100813.22
2022-12-08T13:15:19.547Z,100816.53
2022-12-08T13:20:52.565Z,100808.97
2022-12-08T13:23:54.311Z,100812.53
2022-12-08T13:26:33.254Z,100808.97
2022-12-08T13:29:26.886Z,100806.88
2022-12-08T13:31:58.554Z,100801.94
2022-12-08T13:34:39.920Z,100804.03
2022-12-08T13:37:26.935Z,100802.50
2022-12-08T13:40:06.293Z,100805.22
2022-12-08T13:42:45.757Z,100808.03
2022-12-08T13:45:52.959Z,100800.97
2022-12-08T13:57:40.816Z,100798.78
2022-12-08T14:00:24.423Z,100806.75
2022-12-08T14:02:58.217Z,100798.28
2022-12-08T14:06:09.969Z,100800.78
2022-12-08T14:08:58.896Z,100799.88
2022-12-08T14:11:43.958Z,100809.66
2022-12-08T14:17:30.506Z,100799.38
2022-12-08T14:20:01.987Z,100806.31
2022-12-08T14:22:44.125Z,100799.63
2022-12-08T14:25:17.120Z,100794.56
2022-12-08T14:28:04.123Z,100796.66
2022-12-08T14:33:32.447Z,100795.34
2022-12-08T14:36:16.515Z,100793.72
2022-12-08T14:38:49.070Z,100788.41
2022-12-08T14:41:18.477Z,100788.84
2022-12-08T14:46:38.522Z,100780.84
2022-12-08T14:49:45.107Z,100789.69
2022-12-08T14:52:15.969Z,100784.59
2022-12-08T14:54:47.818Z,100781.47
2022-12-08T14:57:18.451Z,100774.59
2022-12-08T14:59:48.682Z,100783.25
2022-12-08T15:02:34.097Z,100780.09
2022-12-08T15:05:12.250Z,100765.78
2022-12-08T15:08:04.630Z,100786.50
2022-12-08T15:10:38.113Z,100791.28
2022-12-08T15:16:30.130Z,100787.31
2022-12-08T15:19:19.523Z,100786.50
2022-12-08T15:21:51.077Z,100793.41
2022-12-08T15:24:22.148Z,100794.63
2022-12-08T15:27:11.546Z,100800.16
2022-12-08T15:29:41.772Z,100786.59
2022-12-08T15:32:20.201Z,100789.66
2022-12-08T15:35:28.087Z,100790.53
2022-12-08T15:37:56.952Z,100787.59
2022-12-08T15:40:27.327Z,100785.34
2022-12-08T15:42:58.681Z,100787.47
2022-12-08T15:45:33.519Z,100785.22
2022-12-08T15:48:03.062Z,100791.19
2022-12-08T15:50:33.542Z,100787.19
2022-12-08T15:53:04.111Z,100793.00
2022-12-08T15:55:39.097Z,100795.22
2022-12-08T15:58:52.582Z,100801.69
2022-12-08T16:01:00.281Z,100792.81
2022-12-08T16:04:18.611Z,100795.47
2022-12-08T16:09:24.994Z,100802.13
2022-12-08T16:12:11.151Z,100795.91
2022-12-08T16:17:31.610Z,100796.88
2022-12-08T16:20:16.150Z,100806.31
2022-12-08T16:23:07.669Z,100796.38
2022-12-08T16:26:16.337Z,100804.78
2022-12-08T16:28:53.370Z,100802.28
2022-12-08T16:31:23.378Z,100805.25
2022-12-08T16:34:06.215Z,100803.13
2022-12-08T16:39:21.858Z,100793.25
2022-12-08T16:53:47.871Z,100798.25
2022-12-08T16:56:38.554Z,100795.81
2022-12-08T16:59:13.576Z,100788.22
2022-12-08T17:01:56.730Z,100787.31
2022-12-08T17:10:14.153Z,100787.81
2022-12-08T17:19:19.877Z,100793.63
2022-12-08T17:21:57.747Z,100782.22
2022-12-08T17:24:40.456Z,100780.28
2022-12-08T17:36:33.012Z,100779.69
2022-12-08T17:39:07.268Z,100789.34
2022-12-08T17:41:39.459Z,100783.53
2022-12-08T17:44:26.354Z,100775.63
2022-12-08T17:46:56.313Z,100779.97
2022-12-08T17:49:29.764Z,100789.94
2022-12-08T17:52:18.239Z,100785.19
2022-12-08T17:54:47.647Z,100784.38
2022-12-08T17:57:16.755Z,100791.38
2022-12-08T17:59:56.734Z,100783.16
2022-12-08T18:02:37.484Z,100773.31
2022-12-08T18:05:08.871Z,100783.00
2022-12-08T18:10:28.085Z,100779.69
2022-12-08T18:15:54.237Z,100780.31
2022-12-08T18:18:26.689Z,100786.34
2022-12-08T18:20:56.917Z,100790.06
2022-12-08T18:23:31.755Z,100789.63
2022-12-08T18:28:57.604Z,100796.19
2022-12-08T18:31:27.326Z,100792.69
2022-12-08T18:33:56.233Z,100791.78
2022-12-08T18:36:28.691Z,100798.00
2022-12-08T18:39:03.390Z,100796.28
2022-12-08T18:41:34.899Z,100797.84
2022-12-08T18:44:04.250Z,100804.78
2022-12-08T18:46:33.896Z,100802.41
2022-12-08T18:49:02.835Z,100803.72
2022-12-08T18:51:32.834Z,100806.38
2022-12-08T18:54:03.423Z,100816.34
2022-12-08T18:56:35.344Z,100818.28
2022-12-08T18:59:08.418Z,100814.63
2022-12-08T19:05:23.277Z,100821.47
2022-12-08T19:07:53.583Z,100815.94
2022-12-08T19:10:22.264Z,100826.28
2022-12-08T19:12:52.461Z,100819.16
2022-12-08T19:15:21.735Z,100824.38
2022-12-08T19:17:50.439Z,100823.56
2022-12-08T19:20:22.684Z,100835.66
2022-12-08T19:22:53.872Z,100831.25
2022-12-08T19:25:24.907Z,100832.91
2022-12-08T19:27:53.875Z,100826.38
2022-12-08T19:30:22.351Z,100831.25
2022-12-08T19:32:52.037Z,100826.66
2022-12-08T19:35:23.607Z,100828.22
2022-12-08T19:37:54.997Z,100822.66
2022-12-08T19:40:41.351Z,100825.31
2022-12-08T19:43:41.191Z,100824.91
2022-12-08T19:46:10.917Z,100819.38
2022-12-08T19:48:39.767Z,100833.28
2022-12-08T19:51:10.210Z,100835.09
2022-12-08T19:53:47.358Z,100840.00
2022-12-08T19:56:17.366Z,100837.59
2022-12-08T19:58:45.705Z,100838.72
2022-12-08T20:01:14.552Z,100834.03
2022-12-08T20:03:44.466Z,100836.84
2022-12-08T20:06:17.037Z,100847.00
2022-12-08T20:08:50.584Z,100832.28
2022-12-08T20:11:31.000Z,100838.47
2022-12-08T20:14:10.147Z,100841.47
2022-12-08T20:16:41.043Z,100844.00
2022-12-08T20:19:11.021Z,100843.28
2022-12-08T20:21:42.943Z,100846.16
2022-12-08T20:24:13.191Z,100848.72
2022-12-08T20:26:42.922Z,100848.59
2022-12-08T20:29:12.393Z,100847.78
2022-12-08T20:31:41.085Z,100852.19
2022-12-08T20:34:16.923Z,100849.44
2022-12-08T20:36:47.999Z,100848.63
2022-12-08T20:39:19.713Z,100851.13
2022-12-08T20:41:52.331Z,100856.16
2022-12-08T20:44:21.439Z,100852.56
2022-12-08T20:46:59.797Z,100856.56
2022-12-08T20:49:34.383Z,100851.97
2022-12-08T20:52:05.862Z,100853.06
2022-12-08T20:54:34.640Z,100857.28
2022-12-08T20:57:03.826Z,100848.22
2022-12-08T20:59:33.681Z,100859.22
2022-12-08T21:02:02.428Z,100855.25
2022-12-08T21:10:32.880Z,100863.72
2022-12-08T21:13:02.389Z,100856.78
2022-12-08T21:15:31.689Z,100854.63
2022-12-08T21:18:00.915Z,100859.53
2022-12-08T21:20:30.422Z,100863.19
2022-12-08T21:23:01.523Z,100859.09
2022-12-08T21:25:30.049Z,100850.84
2022-12-08T21:28:00.139Z,100862.47
2022-12-08T21:30:28.953Z,100861.34
2022-12-08T21:32:59.275Z,100860.06
2022-12-08T21:35:30.321Z,100860.09
2022-12-08T21:38:01.254Z,100863.09
2022-12-08T21:40:29.910Z,100862.47
2022-12-08T21:43:00.958Z,100863.19
2022-12-08T21:45:32.641Z,100854.69
2022-12-08T21:48:05.737Z,100859.81
2022-12-08T21:50:38.112Z,100848.59
2022-12-08T21:53:09.399Z,100858.00
2022-12-08T21:55:40.769Z,100858.13
2022-12-08T21:58:10.051Z,100861.41
2022-12-08T22:00:39.159Z,100866.09
2022-12-08T22:03:11.263Z,100859.41
2022-12-08T22:05:40.841Z,100872.66
2022-12-08T22:08:15.353Z,100880.84
2022-12-08T22:10:53.766Z,100872.19
2022-12-08T22:13:22.636Z,100870.16
2022-12-08T22:16:00.111Z,100877.81
2022-12-08T22:18:29.328Z,100872.84
2022-12-08T22:20:58.153Z,100879.38
2022-12-08T22:23:29.637Z,100875.88
2022-12-08T22:25:59.215Z,100879.13
2022-12-08T22:28:29.163Z,100892.41
2022-12-08T22:30:58.417Z,100894.97
2022-12-08T22:33:30.358Z,100889.94
2022-12-08T22:36:06.279Z,100888.84
2022-12-08T22:38:40.810Z,100891.75
2022-12-08T22:41:11.406Z,100887.59
2022-12-08T22:43:41.480Z,100890.44
2022-12-08T22:46:12.321Z,100890.09
2022-12-08T22:48:42.896Z,100875.75
2022-12-08T22:51:12.119Z,100882.34
2022-12-08T22:53:43.169Z,100877.16
2022-12-08T22:56:13.662Z,100868.75
2022-12-08T22:58:45.677Z,100873.31
2022-12-08T23:01:27.192Z,100867.50
2022-12-08T23:03:56.664Z,100873.28
2022-12-08T23:06:27.158Z,100856.88
2022-12-08T23:08:57.960Z,100860.16
2022-12-08T23:11:31.551Z,100866.53
2022-12-08T23:14:01.684Z,100865.31
2022-12-08T23:16:31.418Z,100868.75
2022-12-08T23:19:01.097Z,100868.75
2022-12-08T23:21:32.194Z,100864.34
2022-12-08T23:24:04.122Z,100867.75
2022-12-08T23:26:36.501Z,100859.81
2022-12-08T23:29:06.379Z,100865.91
2022-12-08T23:31:35.222Z,100853.66
2022-12-08T23:34:05.085Z,100857.22
2022-12-08T23:36:34.805Z,100863.31
2022-12-08T23:39:05.557Z,100858.00
2022-12-08T23:41:34.298Z,100850.16
2022-12-08T23:44:03.330Z,100857.78
2022-12-08T23:46:32.320Z,100845.53
2022-12-08T23:49:01.044Z,100850.91
2022-12-08T23:51:30.161Z,100853.38
2022-12-08T23:53:58.780Z,100846.06
2022-12-08T23:56:30.617Z,100848.22
2022-12-08T23:58:59.833Z,100850.47
